Terminal Aerodrome Forecast
Issued by NWS Melbourne, FL

Home | Current Version | Previous Version | Text Only | Print | Product List | Glossary On
Versions: 1 2 3 4 5 6 7 8 9 10 11 12 13 14
000
FTUS42 KMLB 291130
TAFMLB
TAF
KMLB 291130Z 2912/3012 09009KT P6SM BKN045
     FM291400 07012KT P6SM BKN040
     FM291800 08014G19KT P6SM SCT040
     FM300100 08009KT P6SM SCT035
     FM300600 08006KT P6SM VCSH SCT030=

USA.gov is the U.S. government's official web portal to all federal, state and local government web resources and services.